Time;durP1;ratioP1;P1;durP2;ratioP2;P2;SDS_P1;SDS_P2;PMS_P1;PMS_P2;Temp;Humidity;BMP_temperature;BMP_pressure;BME280_temperature;BME280_humidity;BME280_pressure;Samples;Min_cycle;Max_cycle;Signal;HPM_P1;HPM_P2
2023/03/22 00:00:12;;;;;;;18.50;4.47;;;9.30;99.90;;;;;;4949945;28;38504;-76
2023/03/22 00:02:38;;;;;;;20.13;3.50;;;9.20;99.90;;;;;;4978508;28;38335;-77
2023/03/22 00:05:05;;;;;;;23.77;3.93;;;9.20;99.90;;;;;;4975298;28;37651;-76
2023/03/22 00:07:31;;;;;;;21.30;4.20;;;9.20;99.90;;;;;;4960542;28;38139;-77
2023/03/22 00:09:57;;;;;;;17.73;3.90;;;9.30;99.90;;;;;;4972397;28;39090;-76
2023/03/22 00:12:23;;;;;;;18.57;3.23;;;9.30;99.90;;;;;;4954491;28;37454;-76
2023/03/22 00:14:51;;;;;;;15.87;3.27;;;9.40;99.90;;;;;;4973361;28;36941;-76
2023/03/22 00:17:17;;;;;;;15.03;3.20;;;9.40;99.90;;;;;;4939279;28;38803;-76
2023/03/22 00:19:43;;;;;;;21.27;2.90;;;9.50;99.90;;;;;;4953033;28;37538;-77
2023/03/22 00:22:10;;;;;;;13.23;3.40;;;9.50;99.90;;;;;;4952766;28;36945;-77
2023/03/22 00:24:36;;;;;;;20.53;3.70;;;9.50;99.90;;;;;;4956003;28;37883;-77
2023/03/22 00:27:03;;;;;;;13.10;3.23;;;9.50;99.90;;;;;;4955493;28;38083;-76
2023/03/22 00:29:29;;;;;;;16.97;3.50;;;9.60;99.90;;;;;;4960807;28;37275;-76
2023/03/22 00:31:55;;;;;;;13.80;3.20;;;9.60;99.90;;;;;;4957044;28;37323;-76
2023/03/22 00:34:21;;;;;;;16.03;3.10;;;9.70;99.90;;;;;;4975157;28;37012;-77
2023/03/22 00:36:47;;;;;;;20.27;3.60;;;9.70;99.90;;;;;;4969696;28;39642;-77
2023/03/22 00:39:13;;;;;;;16.20;3.43;;;9.80;99.90;;;;;;4954662;28;36057;-78
2023/03/22 00:41:39;;;;;;;14.00;3.50;;;9.80;99.90;;;;;;4971326;28;36774;-77
2023/03/22 00:44:05;;;;;;;14.63;2.80;;;9.90;99.90;;;;;;4971576;28;37065;-77
2023/03/22 00:46:31;;;;;;;12.27;2.83;;;10.00;99.90;;;;;;4959355;28;39095;-77
2023/03/22 00:48:57;;;;;;;15.80;3.40;;;10.00;99.90;;;;;;4978048;28;38066;-78
2023/03/22 00:51:24;;;;;;;15.27;2.50;;;10.10;99.90;;;;;;4976658;28;37521;-77
2023/03/22 00:53:51;;;;;;;15.83;2.90;;;10.10;99.90;;;;;;4959174;28;35922;-77
2023/03/22 00:56:17;;;;;;;16.87;3.00;;;10.10;99.90;;;;;;4960633;28;39142;-76
2023/03/22 00:58:43;;;;;;;15.00;2.77;;;10.20;99.90;;;;;;4971298;28;38213;-78
2023/03/22 01:01:13;;;;;;;15.47;2.50;;;10.20;99.90;;;;;;4967858;28;38423;-77
2023/03/22 01:03:40;;;;;;;11.93;2.23;;;10.20;99.90;;;;;;4958863;28;35963;-78
2023/03/22 01:06:07;;;;;;;14.37;3.00;;;10.30;99.90;;;;;;4972333;28;37405;-77
2023/03/22 01:08:37;;;;;;;15.67;2.13;;;10.30;99.90;;;;;;4972692;28;38285;-78
2023/03/22 01:11:05;;;;;;;8.90;2.13;;;10.30;99.90;;;;;;4953980;28;36857;-77
2023/03/22 01:13:31;;;;;;;14.63;2.63;;;10.40;99.90;;;;;;4957947;28;36148;-77
2023/03/22 01:15:57;;;;;;;12.10;2.33;;;10.40;99.90;;;;;;4955023;28;37905;-77
2023/03/22 01:18:24;;;;;;;14.17;2.57;;;10.50;99.90;;;;;;4952056;28;38638;-77
2023/03/22 01:20:51;;;;;;;12.37;2.30;;;10.50;99.90;;;;;;4952773;28;36622;-77
2023/03/22 01:23:17;;;;;;;11.47;2.17;;;10.50;99.90;;;;;;4970691;28;37189;-79
2023/03/22 01:25:43;;;;;;;10.50;2.03;;;10.50;99.90;;;;;;4953509;28;37899;-79
2023/03/22 01:28:09;;;;;;;16.00;2.10;;;10.50;99.90;;;;;;4958660;28;37450;-77
2023/03/22 01:30:39;;;;;;;6.23;1.80;;;10.50;99.90;;;;;;4969447;28;38577;-79
2023/03/22 01:33:06;;;;;;;8.80;2.50;;;10.40;99.90;;;;;;4949260;28;37011;-79
2023/03/22 01:35:33;;;;;;;7.83;2.10;;;10.50;99.90;;;;;;4971619;28;39342;-78
2023/03/22 01:37:59;;;;;;;9.07;2.63;;;10.50;99.90;;;;;;4948219;28;37292;-79
2023/03/22 01:40:26;;;;;;;14.07;3.93;;;10.50;99.90;;;;;;4946011;28;36710;-78
2023/03/22 01:42:54;;;;;;;10.30;3.30;;;10.50;99.90;;;;;;4967797;28;38883;-77
2023/03/22 01:45:34;;;;;;;12.27;3.40;;;10.60;99.90;;;;;;4966344;28;39103;-78
2023/03/22 01:48:08;;;;;;;14.30;4.13;;;10.60;99.90;;;;;;4964558;28;38680;-77
2023/03/22 01:50:37;;;;;;;20.43;4.63;;;10.60;99.90;;;;;;4970050;28;46890;-77
2023/03/22 01:53:05;;;;;;;17.90;4.20;;;10.50;99.90;;;;;;4959642;28;36089;-78
2023/03/22 01:55:32;;;;;;;11.27;4.43;;;10.60;99.90;;;;;;4973836;28;40177;-78
2023/03/22 01:57:59;;;;;;;17.77;5.43;;;10.60;99.90;;;;;;4954799;28;38071;-77
2023/03/22 02:03:12;;;;;;;15.33;5.73;;;10.60;99.90;;;;;;5523012;23;20047;-82
2023/03/22 02:05:40;;;;;;;15.97;5.77;;;10.60;99.90;;;;;;4981118;28;37856;-82
2023/03/22 02:08:08;;;;;;;17.30;6.40;;;10.60;99.90;;;;;;4988496;28;39960;-81
2023/03/22 02:10:34;;;;;;;16.50;6.47;;;10.50;99.90;;;;;;4987826;28;39717;-82
2023/03/22 02:13:18;;;;;;;13.97;6.00;;;10.60;99.90;;;;;;4967584;28;37322;-82
2023/03/22 02:16:06;;;;;;;16.50;7.73;;;10.60;99.90;;;;;;4975464;28;48322;-82
2023/03/22 02:18:48;;;;;;;16.67;7.50;;;10.60;99.90;;;;;;4962336;28;47297;-82
2023/03/22 02:21:33;;;;;;;16.85;7.45;;;10.70;99.90;;;;;;4969216;28;36849;-82
2023/03/22 02:24:14;;;;;;;17.97;9.50;;;10.60;99.90;;;;;;4970901;28;37467;-82
2023/03/22 02:27:05;;;;;;;20.03;9.67;;;10.70;99.90;;;;;;4986653;28;49255;-82
2023/03/22 02:29:36;;;;;;;21.30;9.93;;;10.70;99.90;;;;;;4989015;28;46811;-82
2023/03/22 02:32:45;;;;;;;13.43;8.97;;;10.60;99.90;;;;;;4975503;28;37170;-82
2023/03/22 02:35:20;;;;;;;19.83;10.40;;;10.60;99.90;;;;;;4965657;28;49207;-82
2023/03/22 02:38:05;;;;;;;20.30;9.53;;;10.60;99.90;;;;;;4971014;28;42227;-82
2023/03/22 02:40:43;;;;;;;17.10;9.63;;;10.60;99.90;;;;;;4987591;28;49157;-82
2023/03/22 02:43:37;;;;;;;17.20;9.37;;;10.50;99.90;;;;;;4970646;28;36697;-82
2023/03/22 02:46:11;;;;;;;25.37;11.37;;;10.50;99.90;;;;;;4956194;28;36401;-82
2023/03/22 02:48:58;;;;;;;17.57;9.63;;;10.60;99.90;;;;;;4965839;28;39908;-81
2023/03/22 02:51:57;;;;;;;18.60;10.47;;;10.50;99.90;;;;;;4965817;28;36759;-81
2023/03/22 02:54:40;;;;;;;20.33;10.77;;;10.40;99.90;;;;;;4964059;28;37536;-81
2023/03/22 02:57:13;;;;;;;18.90;10.97;;;10.40;99.90;;;;;;4966260;28;37501;-82
2023/03/22 02:59:40;;;;;;;20.90;11.68;;;10.30;99.90;;;;;;4966315;28;38594;-82
2023/03/22 03:02:11;;;;;;;20.80;11.00;;;10.30;99.90;;;;;;4979593;28;38408;-82
2023/03/22 03:04:42;;;;;;;22.00;12.07;;;10.20;99.90;;;;;;4979265;28;38722;-82
2023/03/22 03:07:13;;;;;;;20.60;12.10;;;10.30;99.90;;;;;;4980698;28;37563;-83
2023/03/22 03:09:41;;;;;;;20.20;11.63;;;10.30;99.90;;;;;;4979497;28;40433;-82
2023/03/22 03:12:22;;;;;;;21.60;12.03;;;10.20;99.90;;;;;;4971128;28;36993;-82
2023/03/22 03:14:49;;;;;;;24.87;13.47;;;10.20;99.90;;;;;;4984134;28;38013;-82
2023/03/22 03:17:30;;;;;;;24.67;12.87;;;10.10;99.90;;;;;;4964856;28;37491;-82
2023/03/22 03:20:13;;;;;;;28.60;13.30;;;10.10;99.90;;;;;;4969543;28;37756;-82
2023/03/22 03:22:53;;;;;;;20.83;12.77;;;10.10;99.90;;;;;;4980267;28;49373;-82
2023/03/22 03:25:28;;;;;;;23.93;13.20;;;10.00;99.90;;;;;;4984618;28;38668;-82
2023/03/22 03:28:08;;;;;;;23.43;12.70;;;10.00;99.90;;;;;;4973314;28;35354;-81
2023/03/22 03:30:48;;;;;;;22.77;13.17;;;10.10;99.90;;;;;;4969512;28;47041;-81
2023/03/22 03:33:18;;;;;;;21.87;12.67;;;10.10;99.90;;;;;;4964013;28;37389;-82
2023/03/22 03:36:00;;;;;;;24.27;13.93;;;10.10;99.90;;;;;;4970815;28;36835;-81
2023/03/22 03:38:30;;;;;;;24.90;14.50;;;10.10;99.90;;;;;;4972733;28;36280;-82
2023/03/22 03:41:02;;;;;;;27.30;13.90;;;10.10;99.90;;;;;;4990122;28;38563;-82
2023/03/22 03:43:28;;;;;;;24.30;13.57;;;10.10;99.90;;;;;;4975326;28;48093;-83
2023/03/22 03:45:54;;;;;;;22.57;13.23;;;10.10;99.90;;;;;;4990480;28;38655;-81
2023/03/22 03:48:27;;;;;;;20.43;13.17;;;10.00;99.90;;;;;;4992739;28;37669;-82
2023/03/22 03:50:56;;;;;;;23.77;13.57;;;10.10;99.90;;;;;;4975765;28;38779;-82
2023/03/22 03:53:22;;;;;;;20.33;12.50;;;10.10;99.90;;;;;;4980191;28;37548;-81
2023/03/22 03:55:48;;;;;;;27.23;11.77;;;10.10;99.90;;;;;;4995432;28;38366;-82
2023/03/22 03:58:15;;;;;;;19.87;11.87;;;10.10;99.90;;;;;;4976094;28;37340;-82
2023/03/22 04:00:42;;;;;;;24.63;12.63;;;10.10;99.90;;;;;;4977268;28;38385;-83
2023/03/22 04:03:08;;;;;;;19.00;11.33;;;10.00;99.90;;;;;;4988385;28;38991;-82
2023/03/22 04:05:34;;;;;;;17.83;11.40;;;10.10;99.90;;;;;;4992516;28;36916;-82
2023/03/22 04:08:00;;;;;;;27.50;13.10;;;10.00;99.90;;;;;;4998088;28;38946;-82
2023/03/22 04:10:33;;;;;;;22.33;11.43;;;10.00;99.90;;;;;;4978234;28;39107;-82
2023/03/22 04:12:59;;;;;;;23.92;11.80;;;10.00;99.90;;;;;;4977494;28;37439;-82
2023/03/22 04:15:25;;;;;;;20.20;11.97;;;10.00;99.90;;;;;;4990888;28;40979;-82
2023/03/22 04:17:52;;;;;;;21.80;10.83;;;10.00;99.90;;;;;;4992381;28;39077;-81
2023/03/22 04:20:20;;;;;;;19.53;10.63;;;10.00;99.90;;;;;;4986540;28;39448;-83
2023/03/22 04:22:47;;;;;;;21.60;11.73;;;10.00;99.90;;;;;;4989371;28;41071;-81
2023/03/22 04:25:16;;;;;;;26.90;11.23;;;10.00;99.90;;;;;;4971542;28;37312;-82
2023/03/22 04:27:46;;;;;;;20.17;11.00;;;10.00;99.90;;;;;;4976529;28;37534;-83
2023/03/22 04:30:21;;;;;;;19.77;9.33;;;10.00;99.90;;;;;;4976405;28;39115;-82
2023/03/22 04:32:49;;;;;;;20.40;9.57;;;9.90;99.90;;;;;;4988549;28;39136;-83
2023/03/22 04:35:15;;;;;;;21.27;9.93;;;10.00;99.90;;;;;;4971096;28;36924;-83
2023/03/22 04:37:41;;;;;;;14.80;8.20;;;10.00;99.90;;;;;;4972227;28;36399;-83
2023/03/22 04:40:09;;;;;;;22.43;9.33;;;10.00;99.90;;;;;;4969055;28;37440;-82
2023/03/22 04:42:35;;;;;;;20.70;8.63;;;10.00;99.90;;;;;;4971006;28;38544;-83
2023/03/22 04:45:06;;;;;;;16.47;7.30;;;9.90;99.90;;;;;;4971360;28;37297;-83
2023/03/22 04:47:33;;;;;;;17.07;7.00;;;9.80;99.90;;;;;;4978248;28;47804;-83
2023/03/22 04:49:59;;;;;;;16.63;7.67;;;9.90;99.90;;;;;;4965031;28;38730;-83
2023/03/22 04:52:25;;;;;;;15.37;6.53;;;9.90;99.90;;;;;;4985267;28;39050;-82
2023/03/22 04:54:51;;;;;;;16.83;6.10;;;9.90;99.90;;;;;;4966116;28;37256;-83
2023/03/22 04:57:17;;;;;;;18.47;5.90;;;9.80;99.90;;;;;;4968492;28;37414;-83
2023/03/22 04:59:43;;;;;;;18.17;6.57;;;9.90;99.90;;;;;;4970787;28;38779;-83
2023/03/22 05:02:09;;;;;;;17.87;6.67;;;9.90;99.90;;;;;;4962919;28;36846;-82
2023/03/22 05:04:35;;;;;;;12.80;5.23;;;9.90;99.90;;;;;;4965007;28;37931;-82
2023/03/22 05:07:01;;;;;;;14.47;5.77;;;10.00;99.90;;;;;;4977672;28;36584;-80
2023/03/22 05:09:27;;;;;;;16.43;5.20;;;10.00;99.90;;;;;;4965889;28;37854;-83
2023/03/22 05:11:53;;;;;;;23.43;5.47;;;10.00;99.90;;;;;;4971978;28;36724;-83
2023/03/22 05:14:20;;;;;;;16.80;5.03;;;10.10;99.90;;;;;;4986969;28;38347;-82
2023/03/22 05:16:46;;;;;;;14.43;4.33;;;10.10;99.90;;;;;;4968807;28;36391;-83
2023/03/22 05:19:12;;;;;;;14.43;4.47;;;10.10;99.90;;;;;;4965360;28;41011;-82
2023/03/22 05:21:40;;;;;;;10.30;3.60;;;10.10;99.90;;;;;;4987696;28;38996;-82
2023/03/22 05:24:07;;;;;;;13.20;4.07;;;10.10;99.90;;;;;;4979695;28;38307;-82
2023/03/22 05:26:41;;;;;;;13.43;4.03;;;10.10;99.90;;;;;;4984817;28;38645;-82
2023/03/22 05:29:09;;;;;;;14.70;3.80;;;10.10;99.90;;;;;;4988781;28;40030;-82
2023/03/22 05:31:39;;;;;;;13.90;3.33;;;10.20;99.90;;;;;;4963513;28;38294;-82
2023/03/22 05:34:06;;;;;;;16.00;4.13;;;10.20;99.90;;;;;;4980903;28;37065;-82
2023/03/22 05:36:35;;;;;;;12.73;3.30;;;10.20;99.90;;;;;;4970574;28;36304;-83
2023/03/22 05:39:02;;;;;;;12.50;3.50;;;10.20;99.90;;;;;;4971284;28;37920;-83
2023/03/22 05:41:30;;;;;;;17.20;4.37;;;10.20;99.90;;;;;;4987756;28;49248;-83
2023/03/22 05:44:01;;;;;;;17.67;3.37;;;10.20;99.90;;;;;;4987114;28;38441;-83
2023/03/22 05:46:28;;;;;;;16.80;3.40;;;10.20;99.90;;;;;;4986088;28;49978;-83
2023/03/22 05:48:54;;;;;;;13.77;4.03;;;10.20;99.90;;;;;;4976812;28;38960;-83
2023/03/22 05:51:20;;;;;;;9.40;3.03;;;10.20;99.90;;;;;;4985848;28;38841;-82
2023/03/22 05:53:47;;;;;;;13.87;3.50;;;10.20;99.90;;;;;;4988434;28;38245;-83
2023/03/22 05:56:14;;;;;;;11.23;2.90;;;10.10;99.90;;;;;;4976430;28;37236;-82
2023/03/22 05:58:41;;;;;;;12.07;3.03;;;10.10;99.90;;;;;;4987387;28;40323;-82
2023/03/22 06:01:16;;;;;;;14.87;4.07;;;10.10;99.90;;;;;;4973777;28;38191;-83
2023/03/22 06:03:42;;;;;;;11.53;2.90;;;10.20;99.90;;;;;;4968114;28;36872;-83
2023/03/22 06:06:09;;;;;;;9.27;2.30;;;10.20;99.90;;;;;;4963277;28;37629;-81
2023/03/22 06:08:37;;;;;;;14.37;2.97;;;10.20;99.90;;;;;;4963547;28;37760;-83
2023/03/22 06:11:06;;;;;;;14.33;2.90;;;10.30;99.90;;;;;;4985549;28;37253;-82
2023/03/22 06:13:32;;;;;;;11.80;2.70;;;10.20;99.90;;;;;;4995018;28;38154;-84
2023/03/22 06:16:07;;;;;;;11.53;3.17;;;10.30;99.90;;;;;;4991567;28;37165;-85
2023/03/22 06:18:39;;;;;;;14.37;2.97;;;10.20;99.90;;;;;;4967624;28;47954;-81
2023/03/22 06:21:05;;;;;;;16.85;2.75;;;10.30;99.90;;;;;;4960756;28;38686;-81
2023/03/22 06:23:32;;;;;;;10.37;2.50;;;10.30;99.90;;;;;;4992734;28;38487;-83
2023/03/22 06:25:58;;;;;;;8.37;3.17;;;10.30;99.90;;;;;;4976437;28;38502;-81
2023/03/22 06:28:28;;;;;;;13.73;3.07;;;10.20;99.90;;;;;;4975894;28;40135;-82
2023/03/22 06:30:54;;;;;;;12.00;2.73;;;10.20;99.90;;;;;;4967916;28;39488;-83
2023/03/22 06:33:22;;;;;;;12.77;3.30;;;10.20;99.90;;;;;;4970730;28;37075;-81
2023/03/22 06:35:49;;;;;;;14.80;2.77;;;10.30;99.90;;;;;;4968084;28;36087;-80
2023/03/22 06:38:15;;;;;;;8.93;2.57;;;10.30;99.90;;;;;;4968148;28;37684;-81
2023/03/22 06:40:41;;;;;;;15.43;3.50;;;10.30;99.90;;;;;;4965575;28;38628;-80
2023/03/22 06:43:07;;;;;;;9.87;2.87;;;10.30;99.90;;;;;;4950851;28;36922;-80
2023/03/22 06:45:34;;;;;;;12.80;3.20;;;10.30;99.90;;;;;;4973183;28;38673;-81
2023/03/22 06:48:00;;;;;;;11.17;3.00;;;10.40;99.90;;;;;;4967246;28;38862;-80
2023/03/22 06:50:27;;;;;;;15.53;3.27;;;10.40;99.90;;;;;;4957984;28;48190;-82
2023/03/22 06:52:54;;;;;;;13.63;3.30;;;10.40;99.90;;;;;;4971277;28;36648;-82
2023/03/22 06:55:36;;;;;;;19.20;3.43;;;10.40;99.90;;;;;;4966863;28;37251;-82
2023/03/22 06:58:08;;;;;;;15.20;2.53;;;10.50;99.90;;;;;;4967020;28;39127;-84
2023/03/22 07:00:35;;;;;;;13.68;2.50;;;10.50;99.90;;;;;;4972256;28;39400;-82
2023/03/22 07:03:02;;;;;;;15.07;2.90;;;10.50;99.90;;;;;;4975404;28;37610;-83
2023/03/22 07:05:29;;;;;;;14.07;3.13;;;10.60;99.90;;;;;;4968317;28;46985;-83
2023/03/22 07:07:55;;;;;;;10.57;2.00;;;10.60;99.90;;;;;;4957886;28;39568;-80
2023/03/22 07:10:22;;;;;;;13.70;2.63;;;10.60;99.90;;;;;;4966868;28;37492;-82
2023/03/22 07:12:51;;;;;;;10.63;2.23;;;10.70;99.90;;;;;;4974973;28;37512;-82
2023/03/22 07:15:23;;;;;;;16.07;2.53;;;10.70;99.90;;;;;;4965578;28;36426;-82
2023/03/22 07:17:52;;;;;;;12.80;2.40;;;10.80;99.90;;;;;;4972272;28;42307;-82
2023/03/22 07:20:19;;;;;;;14.15;2.10;;;10.80;99.90;;;;;;4965051;28;37730;-81
2023/03/22 07:22:48;;;;;;;13.40;2.67;;;10.90;99.90;;;;;;4966881;28;37585;-82
2023/03/22 07:25:16;;;;;;;11.25;3.10;;;10.90;99.90;;;;;;4966660;28;37491;-82
2023/03/22 07:32:57;;;;;;;17.65;2.80;;;10.90;99.90;;;;;;5515864;23;20066;-81
2023/03/22 07:39:28;;;;;;;16.90;2.47;;;10.90;99.90;;;;;;5429954;23;20114;-83
2023/03/22 07:52:31;;;;;;;14.85;2.67;;;10.80;99.90;;;;;;5327642;23;20096;-81
2023/03/22 07:55:09;;;;;;;14.02;2.50;;;10.80;99.90;;;;;;4978141;28;38075;-81
2023/03/22 07:57:35;;;;;;;15.00;2.83;;;10.90;99.90;;;;;;4977541;28;47469;-82
2023/03/22 08:00:11;;;;;;;13.65;2.90;;;10.80;99.90;;;;;;4983178;28;40259;-84
2023/03/22 08:02:54;;;;;;;15.13;2.80;;;10.80;99.90;;;;;;4987069;28;39763;-82
2023/03/22 08:05:21;;;;;;;;;;;10.80;99.90;;;;;;4963866;28;38400;-82
2023/03/22 08:07:48;;;;;;;10.30;2.28;;;10.70;99.90;;;;;;4980860;28;37501;-82
2023/03/22 08:10:27;;;;;;;16.57;3.17;;;10.60;99.90;;;;;;4978836;28;40049;-82
2023/03/22 08:16:16;;;;;;;20.10;2.97;;;10.50;99.90;;;;;;5808925;23;20032;-84
2023/03/22 08:27:00;;;;;;;11.33;2.97;;;10.40;99.90;;;;;;4925460;28;39565;-82
2023/03/22 08:30:01;;;;;;;20.93;3.83;;;10.30;99.90;;;;;;4922790;28;36821;-83
2023/03/22 08:32:53;;;;;;;17.77;3.97;;;10.30;99.90;;;;;;4943854;28;39003;-83
2023/03/22 09:27:07;;;;;;;16.90;5.03;;;10.40;99.90;;;;;;5543743;23;20035;-83
2023/03/22 09:47:57;;;;;;;17.23;3.53;;;10.50;99.90;;;;;;5637578;22;20013;-83
2023/03/22 09:53:36;;;;;;;21.77;4.47;;;10.50;99.90;;;;;;5520869;23;20035;-84
2023/03/22 10:17:33;;;;;;;15.13;3.43;;;10.50;99.90;;;;;;1451520;26;20108;-84
2023/03/22 10:20:35;;;;;;;12.80;3.77;;;10.40;99.90;;;;;;5142467;23;40355;-83
2023/03/22 10:34:38;;;;;;;12.00;3.22;;;10.60;99.90;;;;;;5782706;23;20058;-82
2023/03/22 10:40:35;;;;;;;18.77;3.47;;;10.80;99.90;;;;;;5504679;23;40389;-81
2023/03/22 10:51:51;;;;;;;15.07;3.08;;;11.00;99.90;;;;;;5029399;23;20190;-82
2023/03/22 10:54:24;;;;;;;11.98;2.60;;;11.20;99.90;;;;;;4948971;28;38579;-82
2023/03/22 10:57:03;;;;;;;9.63;2.40;;;11.20;99.90;;;;;;4971224;28;36915;-82
2023/03/22 10:59:52;;;;;;;7.88;2.55;;;11.30;99.90;;;;;;5182808;23;39525;-80
2023/03/22 11:03:10;;;;;;;9.77;2.97;;;11.40;99.90;;;;;;4975656;28;38956;-84
2023/03/22 11:11:37;;;;;;;13.20;2.95;;;11.60;99.90;;;;;;5897539;23;20050;-82
2023/03/22 11:17:48;;;;;;;8.90;2.58;;;11.70;99.90;;;;;;5103830;23;20152;-81
2023/03/22 11:21:01;;;;;;;10.23;2.83;;;11.60;99.90;;;;;;4950612;28;38691;-82
2023/03/22 11:23:33;;;;;;;10.07;3.10;;;11.60;99.90;;;;;;4924988;28;39162;-81
2023/03/22 11:26:11;;;;;;;9.15;2.63;;;11.50;99.90;;;;;;4943488;28;37815;-83
2023/03/22 11:29:35;;;;;;;;;;;;;;;;;;;;;
2023/03/22 11:32:34;;;;;;;8.43;2.42;;;11.50;99.90;;;;;;4961054;28;49085;-82
2023/03/22 11:35:22;;;;;;;7.78;2.65;;;11.50;99.90;;;;;;4946066;28;49071;-81
2023/03/22 11:37:50;;;;;;;;;;;11.50;99.90;;;;;;4936259;29;38404;-81
2023/03/22 11:40:31;;;;;;;13.07;3.50;;;11.50;99.90;;;;;;4946821;28;38387;-80
2023/03/22 11:43:47;;;;;;;8.95;2.55;;;11.60;99.90;;;;;;4925050;28;37204;-80
2023/03/22 11:46:19;;;;;;;12.52;3.17;;;11.60;99.90;;;;;;4961936;28;48778;-81
2023/03/22 11:48:49;;;;;;;7.35;3.05;;;11.50;99.90;;;;;;5315789;23;39890;-80
2023/03/22 11:51:24;;;;;;;12.38;4.30;;;11.60;99.90;;;;;;4940261;28;38478;-81
2023/03/22 11:53:57;;;;;;;8.45;3.60;;;11.60;99.90;;;;;;4983002;28;37084;-80
2023/03/22 11:56:46;;;;;;;12.65;4.60;;;11.60;99.90;;;;;;4998898;28;38950;-81
2023/03/22 11:59:24;;;;;;;9.13;3.78;;;11.60;99.90;;;;;;4976252;28;39148;-80
2023/03/22 12:01:59;;;;;;;8.05;3.70;;;11.60;99.90;;;;;;5332996;23;38907;-84
2023/03/22 12:04:38;;;;;;;10.43;3.83;;;11.60;99.90;;;;;;4974433;28;37956;-84
2023/03/22 12:07:23;;;;;;;13.95;4.43;;;11.60;99.90;;;;;;4945646;28;39496;-80
2023/03/22 12:10:26;;;;;;;9.65;3.00;;;11.60;99.90;;;;;;4988661;28;38696;-82
2023/03/22 12:13:27;;;;;;;;;;;11.60;99.90;;;;;;4937651;28;48415;-82
2023/03/22 12:16:42;;;;;;;8.90;2.65;;;11.70;99.90;;;;;;4983983;28;49416;-81
2023/03/22 12:20:05;;;;;;;9.40;3.40;;;11.70;99.90;;;;;;4956007;28;47503;-82
2023/03/22 12:22:39;;;;;;;7.20;2.80;;;11.80;99.90;;;;;;4979473;28;49305;-82
2023/03/22 12:26:09;;;;;;;9.82;2.78;;;11.80;99.90;;;;;;4972785;28;38229;-83
2023/03/22 12:29:05;;;;;;;9.00;2.70;;;11.90;99.90;;;;;;4898601;28;48981;-83
2023/03/22 12:32:23;;;;;;;10.32;2.88;;;11.90;99.90;;;;;;4926799;28;48946;-83
2023/03/22 12:35:44;;;;;;;7.05;2.65;;;12.00;99.90;;;;;;4807404;29;49969;-83
2023/03/22 12:38:51;;;;;;;8.13;2.47;;;12.10;99.90;;;;;;4801170;29;50000;-83
2023/03/22 12:41:56;;;;;;;10.88;3.30;;;12.00;99.90;;;;;;4821194;29;48729;-82
2023/03/22 12:50:16;;;;;;;10.45;3.10;;;12.20;99.90;;;;;;5471910;23;20056;-82
2023/03/22 12:57:02;;;;;;;8.23;2.35;;;12.20;99.90;;;;;;4957904;28;49997;-81
2023/03/22 12:59:51;;;;;;;;;;;12.30;99.90;;;;;;4999372;23;39106;-82
2023/03/22 13:02:47;;;;;;;5.97;1.95;;;12.40;99.90;;;;;;4964622;28;38565;-82
2023/03/22 13:06:21;;;;;;;7.38;3.10;;;12.40;99.90;;;;;;4956645;28;49565;-81
2023/03/22 13:09:43;;;;;;;11.02;2.80;;;12.40;99.90;;;;;;4967446;28;49067;-81
2023/03/22 13:12:40;;;;;;;10.95;2.97;;;12.40;99.90;;;;;;4948120;28;50012;-81
2023/03/22 13:15:53;;;;;;;7.25;2.08;;;12.40;99.90;;;;;;4926359;28;39528;-81
2023/03/22 13:21:30;;;;;;;9.27;2.50;;;12.30;99.90;;;;;;5777577;23;20051;-82
2023/03/22 13:24:30;;;;;;;9.68;2.38;;;12.30;99.90;;;;;;4973946;28;40074;-81
2023/03/22 13:27:05;;;;;;;8.38;3.15;;;12.30;99.90;;;;;;4966971;28;38668;-82
2023/03/22 13:29:52;;;;;;;8.15;2.80;;;12.20;99.90;;;;;;4917631;29;38591;-82
2023/03/22 13:33:14;;;;;;;5.82;2.58;;;12.20;99.90;;;;;;4894455;28;40019;-81
2023/03/22 13:36:13;;;;;;;8.98;3.47;;;12.30;99.90;;;;;;4889041;29;46957;-80
2023/03/22 13:39:16;;;;;;;7.25;2.80;;;12.30;99.90;;;;;;4897995;29;50570;-80
2023/03/22 13:42:20;;;;;;;13.60;3.53;;;12.30;99.90;;;;;;4920278;28;49942;-81
2023/03/22 13:49:19;;;;;;;8.63;3.50;;;12.30;99.90;;;;;;4890741;28;50127;-80
2023/03/22 13:55:50;;;;;;;9.45;3.30;;;12.30;99.90;;;;;;4836144;29;50744;-82
2023/03/22 13:58:37;;;;;;;10.25;3.10;;;12.30;99.90;;;;;;4862693;29;38901;-80
2023/03/22 14:01:12;;;;;;;7.32;3.28;;;12.30;99.90;;;;;;4900580;29;38890;-79
2023/03/22 14:03:41;;;;;;;10.75;3.58;;;12.40;99.90;;;;;;4896922;29;37650;-80
2023/03/22 14:06:19;;;;;;;6.05;3.20;;;12.40;99.90;;;;;;4925773;28;36941;-79
2023/03/22 14:08:54;;;;;;;9.80;3.97;;;12.40;99.90;;;;;;4933183;28;38910;-79
2023/03/22 14:11:47;;;;;;;11.27;4.20;;;12.40;99.90;;;;;;4922379;28;39159;-80
2023/03/22 14:14:24;;;;;;;12.50;3.97;;;12.40;99.90;;;;;;4922661;28;38877;-79
2023/03/22 14:17:27;;;;;;;7.85;3.85;;;12.40;99.90;;;;;;4918932;29;35978;-80
2023/03/22 14:19:57;;;;;;;9.13;4.28;;;12.40;99.90;;;;;;4925345;28;48447;-79
2023/03/22 14:22:33;;;;;;;8.98;4.32;;;12.40;99.90;;;;;;4931919;28;36830;-80
2023/03/22 14:25:01;;;;;;;8.75;4.60;;;12.40;99.90;;;;;;4931645;29;39350;-80
2023/03/22 14:27:27;;;;;;;11.68;5.30;;;12.40;99.90;;;;;;4938175;28;36965;-80
2023/03/22 14:29:54;;;;;;;7.55;5.85;;;12.40;99.90;;;;;;4929860;28;38359;-79
2023/03/22 14:32:28;;;;;;;12.20;6.55;;;12.40;99.90;;;;;;4934531;28;37921;-80
2023/03/22 14:35:09;;;;;;;15.35;7.03;;;12.40;99.90;;;;;;4950876;28;37315;-80
2023/03/22 14:37:38;;;;;;;15.05;7.63;;;12.50;99.90;;;;;;4948406;28;47118;-80
2023/03/22 14:40:26;;;;;;;13.45;7.43;;;12.50;99.90;;;;;;4951285;28;39678;-80
2023/03/22 14:42:52;;;;;;;9.18;6.40;;;12.50;99.90;;;;;;4949990;28;37294;-80
2023/03/22 14:45:25;;;;;;;9.32;6.32;;;12.50;99.90;;;;;;4945852;28;37329;-80
2023/03/22 14:47:53;;;;;;;14.88;6.55;;;12.40;99.90;;;;;;4944749;28;35116;-80
2023/03/22 14:50:21;;;;;;;13.20;6.57;;;12.40;99.90;;;;;;4945119;28;39639;-80
2023/03/22 14:52:50;;;;;;;13.35;7.45;;;12.30;99.90;;;;;;4961664;28;37560;-79
2023/03/22 14:55:19;;;;;;;12.10;7.32;;;12.30;99.90;;;;;;4955636;28;36761;-80
2023/03/22 14:57:51;;;;;;;17.55;7.82;;;12.20;99.90;;;;;;4938842;28;36461;-81
2023/03/22 15:00:21;;;;;;;15.95;7.50;;;12.10;99.90;;;;;;4952319;28;39548;-81
2023/03/22 15:03:14;;;;;;;15.95;8.73;;;12.00;99.90;;;;;;4954303;28;47060;-80
2023/03/22 15:05:42;;;;;;;19.05;10.15;;;11.90;99.90;;;;;;4958275;28;48975;-81
2023/03/22 15:08:30;;;;;;;23.15;10.38;;;11.90;99.90;;;;;;4953491;28;36912;-82
2023/03/22 15:11:05;;;;;;;21.80;11.77;;;11.80;99.90;;;;;;4958310;28;39192;-81
2023/03/22 15:13:50;;;;;;;17.35;10.13;;;11.80;99.90;;;;;;4955633;28;47702;-80
2023/03/22 15:16:20;;;;;;;24.10;11.57;;;11.80;99.90;;;;;;4954281;28;38702;-81
2023/03/22 15:18:51;;;;;;;20.77;10.77;;;11.80;99.90;;;;;;4958982;28;37361;-81
2023/03/22 15:21:19;;;;;;;19.73;10.40;;;11.70;99.90;;;;;;4942445;28;38735;-81
2023/03/22 15:24:10;;;;;;;14.65;9.93;;;11.80;99.90;;;;;;4953922;28;39382;-81
2023/03/22 15:26:49;;;;;;;15.25;9.00;;;11.70;99.90;;;;;;4964232;28;47929;-81
2023/03/22 15:29:24;;;;;;;17.92;10.13;;;11.70;99.90;;;;;;4955136;28;37001;-80
2023/03/22 15:31:55;;;;;;;16.38;9.20;;;11.70;99.90;;;;;;4960117;28;41889;-80
2023/03/22 15:34:27;;;;;;;20.05;9.30;;;11.70;99.90;;;;;;4971574;28;39374;-81
2023/03/22 15:37:13;;;;;;;15.85;9.82;;;11.60;99.90;;;;;;4964371;28;38005;-81
2023/03/22 15:39:46;;;;;;;20.65;10.77;;;11.60;99.90;;;;;;4971052;28;49396;-81
2023/03/22 15:42:15;;;;;;;14.48;9.10;;;11.60;99.90;;;;;;4943419;28;38241;-81
2023/03/22 15:45:04;;;;;;;16.67;9.95;;;11.60;99.90;;;;;;4962150;28;38704;-80
2023/03/22 15:48:18;;;;;;;18.02;11.40;;;11.60;99.90;;;;;;5257548;23;49603;-79
2023/03/22 15:59:29;;;;;;;15.27;10.52;;;11.50;99.90;;;;;;4967781;28;20048;-81
2023/03/22 16:02:40;;;;;;;12.90;8.43;;;11.50;99.90;;;;;;4956260;28;37314;-81
2023/03/22 16:05:11;;;;;;;14.80;9.15;;;11.50;99.90;;;;;;4971034;28;48650;-80
2023/03/22 16:07:48;;;;;;;13.27;8.65;;;11.50;99.90;;;;;;4962051;28;38393;-81
2023/03/22 16:10:26;;;;;;;11.10;8.45;;;11.50;99.90;;;;;;4962165;28;38498;-80
2023/03/22 16:13:24;;;;;;;10.02;8.73;;;11.50;99.90;;;;;;4962377;28;38028;-81
2023/03/22 16:15:51;;;;;;;10.52;8.20;;;11.60;99.90;;;;;;4937845;28;48993;-77
2023/03/22 16:18:22;;;;;;;12.60;7.80;;;11.60;99.90;;;;;;4925607;28;38213;-79
2023/03/22 16:20:49;;;;;;;11.18;7.38;;;11.60;99.90;;;;;;4961851;28;37321;-81
2023/03/22 16:23:26;;;;;;;14.43;8.10;;;11.60;99.90;;;;;;4979590;28;36366;-80
2023/03/22 16:25:54;;;;;;;10.05;7.45;;;11.60;99.90;;;;;;4951477;28;40761;-81
2023/03/22 16:28:29;;;;;;;8.75;7.60;;;11.60;99.90;;;;;;4960912;28;39693;-80
2023/03/22 16:30:55;;;;;;;10.67;8.83;;;11.60;99.90;;;;;;4926736;28;38608;-79
2023/03/22 16:33:32;;;;;;;13.98;8.77;;;11.60;99.90;;;;;;4917254;28;35982;-80